モンテビデオ の空港の天気 - METARとTAF

カラスコ国際空港 ( SUMU / MVD ) - ウルグアイ モンテビデオ
飛行場実況気象(Metar)
観測時間12/01 20:00 UYT (12/01 23:00 UTC)
風向・風速東 5m/s
視程10km以上
天気現象
なし
気温21℃
湿度60%
気圧1011hPa
METARSUMU 012300Z 10010KT CAVOK 21/13 Q1011 NOSIG
過去の天気等 Google飛行場航空写真 Wunderground天気予報

過去48時間のMETAR

飛行場予報(TAF)
発表時間: 12/01 14:30 UYT (12/01 17:30 UTC)
予報対象時間: 1日15時 UYT ~ 2日15時 UYT
風向・風速東南東 7m/s
視程10km以上
少しの雲 雲底高度 910m
全天の8割程度の雲 雲底高度 6100m
1日19時 UYT ~ 1日21時 UYT に徐々に
風向・風速北北東 5m/s
視程10km以上
なし
TAF SUMU 011730Z 0118/0218 12013KT 9999 FEW030 BKN200 TX27/0218Z TN13/0209Z
BECMG 0122/0200 03010KT CAVOK